createdAt,value
2022-11-23T00:01:30.447Z,2.50
2022-11-23T00:04:00.497Z,2.50
2022-11-23T00:09:01.142Z,3.10
2022-11-23T00:11:31.567Z,1.00
2022-11-23T00:14:01.491Z,1.70
2022-11-23T00:16:32.532Z,4.50
2022-11-23T00:19:04.586Z,6.80
2022-11-23T00:21:43.483Z,3.00
2022-11-23T00:24:12.975Z,2.50
2022-11-23T00:26:41.035Z,2.50
2022-11-23T00:29:14.227Z,2.30
2022-11-23T00:31:41.506Z,2.70
2022-11-23T00:34:08.832Z,4.50
2022-11-23T00:36:35.843Z,2.50
2022-11-23T00:39:02.815Z,2.50
2022-11-23T00:43:59.448Z,3.80
2022-11-23T00:46:29.667Z,2.80
2022-11-23T00:48:57.615Z,2.50
2022-11-23T00:51:31.183Z,3.40
2022-11-23T00:53:59.833Z,2.60
2022-11-23T00:56:28.378Z,3.00
2022-11-23T00:58:57.744Z,2.50
2022-11-23T01:01:28.289Z,1.00
2022-11-23T01:03:59.180Z,2.60
2022-11-23T01:06:35.286Z,4.00
2022-11-23T01:09:12.655Z,2.60
2022-11-23T01:11:41.772Z,2.60
2022-11-23T01:14:13.610Z,2.60
2022-11-23T01:16:42.772Z,2.60
2022-11-23T01:19:17.195Z,2.60
2022-11-23T01:21:50.796Z,2.60
2022-11-23T01:24:21.430Z,2.70
2022-11-23T01:26:54.175Z,2.60
2022-11-23T01:29:25.089Z,2.70
2022-11-23T01:31:54.949Z,2.70
2022-11-23T01:34:22.715Z,2.70
2022-11-23T01:36:50.547Z,2.70
2022-11-23T01:39:17.686Z,1.70
2022-11-23T01:41:48.474Z,2.40
2022-11-23T01:44:30.047Z,2.60
2022-11-23T01:47:04.982Z,2.60
2022-11-23T01:49:48.141Z,2.60
2022-11-23T01:52:26.842Z,2.60
2022-11-23T01:54:56.883Z,2.60
2022-11-23T01:57:33.831Z,2.60
2022-11-23T02:00:01.977Z,2.40
2022-11-23T02:02:45.897Z,2.40
2022-11-23T02:05:17.907Z,3.80
2022-11-23T02:07:48.198Z,2.30
2022-11-23T02:10:18.225Z,4.30
2022-11-23T02:12:48.340Z,2.90
2022-11-23T02:15:24.622Z,3.50
2022-11-23T02:17:55.336Z,2.70
2022-11-23T02:20:25.759Z,0.90
2022-11-23T02:23:14.342Z,2.80
2022-11-23T02:25:45.021Z,2.90
2022-11-23T02:28:29.457Z,3.00
2022-11-23T02:30:59.572Z,3.30
2022-11-23T02:33:26.556Z,3.10
2022-11-23T02:36:00.086Z,2.60
2022-11-23T02:38:34.135Z,3.10
2022-11-23T02:43:28.988Z,3.10
2022-11-23T02:46:04.589Z,3.10
2022-11-23T02:48:31.679Z,3.10
2022-11-23T02:51:01.306Z,4.70
2022-11-23T02:55:55.640Z,3.20
2022-11-23T02:58:24.336Z,3.20
2022-11-23T03:00:51.633Z,3.20
2022-11-23T03:03:27.187Z,3.00
2022-11-23T03:05:55.557Z,3.20
2022-11-23T03:08:24.254Z,3.20
2022-11-23T03:10:51.283Z,3.20
2022-11-23T03:13:19.691Z,2.40
2022-11-23T03:15:47.060Z,3.20
2022-11-23T03:18:14.079Z,3.20
2022-11-23T03:20:44.285Z,3.20
2022-11-23T03:23:11.532Z,3.30
2022-11-23T03:25:40.416Z,3.20
2022-11-23T03:28:09.392Z,4.40
2022-11-23T03:30:37.969Z,3.10
2022-11-23T03:33:07.049Z,3.10
2022-11-23T03:35:35.871Z,2.20
2022-11-23T03:38:17.790Z,3.10
2022-11-23T03:40:48.159Z,3.10
2022-11-23T03:43:24.118Z,3.10
2022-11-23T03:46:12.285Z,3.10
2022-11-23T03:53:37.553Z,3.20
2022-11-23T04:01:09.580Z,3.20
2022-11-23T04:03:37.691Z,3.20
2022-11-23T04:06:26.780Z,4.70
2022-11-23T04:09:02.360Z,3.10
2022-11-23T04:11:50.479Z,3.80
2022-11-23T04:16:52.024Z,3.30
2022-11-23T04:19:22.038Z,3.20
2022-11-23T04:21:54.796Z,3.00
2022-11-23T04:24:23.423Z,4.10
2022-11-23T04:26:53.393Z,4.50
2022-11-23T04:29:20.659Z,4.70
2022-11-23T04:34:21.592Z,2.60
2022-11-23T04:39:27.843Z,3.40
2022-11-23T04:44:57.775Z,3.50
2022-11-23T04:47:25.721Z,2.90
2022-11-23T04:52:22.084Z,3.50
2022-11-23T04:54:51.145Z,4.50
2022-11-23T04:57:18.627Z,3.50
2022-11-23T04:59:51.223Z,3.10
2022-11-23T05:02:18.965Z,3.50
2022-11-23T05:05:03.376Z,3.60
2022-11-23T05:07:31.415Z,3.20
2022-11-23T05:10:08.637Z,3.60
2022-11-23T05:12:37.095Z,3.00
2022-11-23T05:15:05.635Z,3.70
2022-11-23T05:17:37.814Z,3.70
2022-11-23T05:20:10.375Z,4.20
2022-11-23T05:25:23.308Z,4.60
2022-11-23T05:28:03.661Z,5.10
2022-11-23T05:30:38.533Z,3.80
2022-11-23T05:33:06.468Z,4.20
2022-11-23T05:35:35.574Z,2.80
2022-11-23T05:38:03.452Z,4.80
2022-11-23T05:40:33.003Z,4.90
2022-11-23T05:43:02.750Z,5.10
2022-11-23T05:45:31.069Z,3.80
2022-11-23T05:47:59.357Z,3.90
2022-11-23T05:50:43.655Z,3.20
2022-11-23T05:53:29.208Z,4.40
2022-11-23T05:56:15.861Z,3.90
2022-11-23T05:58:58.756Z,3.40
2022-11-23T06:01:26.464Z,5.50
2022-11-23T06:03:58.014Z,3.90
2022-11-23T06:06:28.701Z,3.90
2022-11-23T06:08:59.113Z,3.20
2022-11-23T06:11:29.023Z,5.60
2022-11-23T06:16:35.094Z,3.90
2022-11-23T06:19:16.682Z,4.00
2022-11-23T06:21:50.385Z,3.20
2022-11-23T06:24:20.982Z,4.00
2022-11-23T06:27:00.125Z,4.60
2022-11-23T06:29:27.101Z,3.50
2022-11-23T06:31:54.742Z,3.90
2022-11-23T06:34:21.960Z,4.00
2022-11-23T06:36:49.893Z,4.00
2022-11-23T06:39:19.083Z,4.00
2022-11-23T06:41:49.104Z,4.00
2022-11-23T06:44:17.176Z,4.00
2022-11-23T06:46:44.477Z,3.10
2022-11-23T06:49:11.763Z,4.00
2022-11-23T06:51:41.781Z,3.80
2022-11-23T06:54:09.476Z,4.00
2022-11-23T06:56:39.721Z,4.10
2022-11-23T06:59:15.762Z,4.10
2022-11-23T07:01:44.642Z,4.00
2022-11-23T07:04:13.994Z,4.10
2022-11-23T07:06:47.196Z,4.10
2022-11-23T07:09:28.123Z,4.50
2022-11-23T07:12:10.233Z,4.20
2022-11-23T07:14:37.132Z,4.20
2022-11-23T07:17:04.033Z,4.20
2022-11-23T07:19:33.486Z,4.30
2022-11-23T07:22:00.845Z,4.30
2022-11-23T07:24:32.855Z,5.60
2022-11-23T07:27:06.642Z,4.30
2022-11-23T07:29:33.875Z,4.30
2022-11-23T07:32:01.109Z,4.30
2022-11-23T07:34:29.203Z,4.30
2022-11-23T07:37:01.700Z,4.30
2022-11-23T07:39:55.146Z,4.30
2022-11-23T07:42:32.351Z,4.30
2022-11-23T07:45:02.825Z,4.30
2022-11-23T07:47:30.038Z,4.30
2022-11-23T07:49:59.623Z,4.40
2022-11-23T07:52:27.581Z,6.40
2022-11-23T07:54:54.522Z,4.40
2022-11-23T07:57:21.509Z,4.50
2022-11-23T07:59:48.357Z,4.50
2022-11-23T08:02:16.867Z,4.50
2022-11-23T08:04:44.887Z,4.50
2022-11-23T08:10:06.873Z,4.70
2022-11-23T08:12:40.266Z,3.70
2022-11-23T08:15:11.303Z,7.30
2022-11-23T08:17:41.325Z,3.20
2022-11-23T08:20:15.438Z,4.50
2022-11-23T08:22:47.453Z,4.70
2022-11-23T08:25:16.734Z,4.70
2022-11-23T08:27:46.351Z,4.60
2022-11-23T08:30:15.143Z,4.60
2022-11-23T08:32:42.067Z,4.60
2022-11-23T08:35:11.300Z,4.60
2022-11-23T08:37:38.314Z,4.60
2022-11-23T08:40:08.848Z,4.60
2022-11-23T08:42:36.787Z,4.50
2022-11-23T08:45:05.374Z,4.60
2022-11-23T08:47:33.818Z,4.60
2022-11-23T08:50:11.172Z,5.10
2022-11-23T08:52:38.250Z,4.60
2022-11-23T08:55:05.675Z,4.70
2022-11-23T08:57:32.523Z,4.70
2022-11-23T09:00:02.275Z,4.80
2022-11-23T09:02:29.330Z,4.80
2022-11-23T09:04:58.768Z,4.90
2022-11-23T09:07:28.490Z,4.90
2022-11-23T09:09:59.056Z,5.00
2022-11-23T09:12:25.989Z,5.00
2022-11-23T09:14:53.815Z,5.00
2022-11-23T09:17:20.746Z,5.50
2022-11-23T09:19:53.125Z,5.10
2022-11-23T09:22:20.198Z,5.10
2022-11-23T09:24:48.533Z,5.20
2022-11-23T09:27:15.594Z,5.20
2022-11-23T09:29:42.556Z,5.30
2022-11-23T09:32:09.659Z,5.30
2022-11-23T09:34:39.018Z,5.30
2022-11-23T09:37:08.980Z,5.80
2022-11-23T09:39:35.958Z,5.30
2022-11-23T09:42:26.822Z,5.20
2022-11-23T09:45:28.975Z,5.20
2022-11-23T09:48:03.897Z,5.30
2022-11-23T09:50:54.946Z,5.30
2022-11-23T09:54:00.744Z,4.00
2022-11-23T09:56:32.365Z,6.60
2022-11-23T09:59:11.428Z,5.60
2022-11-23T10:01:39.155Z,7.10
2022-11-23T10:04:09.771Z,6.40
2022-11-23T10:06:45.157Z,6.40
2022-11-23T10:09:30.895Z,6.50
2022-11-23T10:12:15.772Z,4.10
2022-11-23T10:14:48.848Z,4.40
2022-11-23T10:17:59.724Z,5.80
2022-11-23T10:20:57.898Z,7.20
2022-11-23T10:24:06.639Z,6.40
2022-11-23T10:26:40.174Z,7.40
2022-11-23T10:29:28.645Z,6.80
2022-11-23T10:32:04.509Z,6.50
2022-11-23T10:34:56.397Z,6.40
2022-11-23T10:37:23.496Z,6.30
2022-11-23T10:39:50.388Z,6.30
2022-11-23T10:42:30.651Z,6.30
2022-11-23T10:44:59.757Z,6.40
2022-11-23T10:47:38.543Z,6.40
2022-11-23T10:50:24.852Z,6.40
2022-11-23T10:52:57.983Z,6.30
2022-11-23T10:55:30.068Z,6.30
2022-11-23T10:57:58.014Z,6.30
2022-11-23T11:00:30.602Z,6.40
2022-11-23T11:02:59.705Z,6.40
2022-11-23T11:08:27.727Z,6.30
2022-11-23T11:11:04.676Z,6.20
2022-11-23T11:13:43.997Z,6.20
2022-11-23T11:16:25.556Z,6.30
2022-11-23T11:18:52.901Z,6.40
2022-11-23T11:21:31.555Z,6.60
2022-11-23T11:24:03.310Z,6.70
2022-11-23T11:26:33.237Z,6.90
2022-11-23T11:29:01.847Z,7.10
2022-11-23T11:31:39.188Z,7.30
2022-11-23T11:34:15.087Z,7.50
2022-11-23T11:37:10.947Z,9.00
2022-11-23T11:39:51.070Z,7.10
2022-11-23T11:42:30.352Z,6.90
2022-11-23T11:45:03.783Z,6.60
2022-11-23T11:47:37.731Z,6.70
2022-11-23T11:50:31.169Z,6.70
2022-11-23T11:53:22.281Z,6.60
2022-11-23T11:56:19.716Z,6.60
2022-11-23T11:58:56.617Z,6.60
2022-11-23T12:01:55.053Z,6.60
2022-11-23T12:04:23.221Z,6.60
2022-11-23T12:07:22.592Z,6.90
2022-11-23T12:09:55.922Z,6.60
2022-11-23T12:12:29.786Z,6.50
2022-11-23T12:15:11.040Z,5.40
2022-11-23T12:18:02.460Z,9.80
2022-11-23T12:20:47.119Z,7.20
2022-11-23T12:23:26.274Z,6.60
2022-11-23T12:26:23.304Z,6.20
2022-11-23T12:29:19.638Z,6.70
2022-11-23T12:31:55.566Z,6.80
2022-11-23T12:34:39.244Z,6.80
2022-11-23T12:37:39.255Z,6.80
2022-11-23T12:40:31.326Z,6.90
2022-11-23T12:43:14.287Z,6.80
2022-11-23T12:45:54.885Z,6.80
2022-11-23T12:48:47.592Z,7.10
2022-11-23T12:51:39.286Z,7.40
2022-11-23T12:54:35.091Z,7.00
2022-11-23T12:57:21.179Z,7.00
2022-11-23T13:02:47.362Z,7.00
2022-11-23T13:05:28.528Z,7.00
2022-11-23T13:08:07.588Z,7.40
2022-11-23T13:10:45.433Z,6.90
2022-11-23T13:13:16.230Z,6.90
2022-11-23T13:16:11.106Z,6.80
2022-11-23T13:18:44.128Z,6.80
2022-11-23T13:21:41.664Z,6.80
2022-11-23T13:24:33.688Z,6.80
2022-11-23T13:27:31.419Z,6.90
2022-11-23T13:30:01.378Z,6.90
2022-11-23T13:32:53.317Z,6.90
2022-11-23T13:35:23.741Z,7.00
2022-11-23T13:38:04.195Z,6.90
2022-11-23T13:40:36.216Z,6.50
2022-11-23T13:43:30.221Z,8.20
2022-11-23T13:46:14.762Z,7.50
2022-11-23T13:48:56.711Z,6.90
2022-11-23T13:51:34.683Z,7.00
2022-11-23T13:54:22.178Z,7.00
2022-11-23T13:57:01.690Z,7.50
2022-11-23T13:59:31.894Z,7.00
2022-11-23T14:02:07.907Z,7.00
2022-11-23T14:04:44.068Z,7.00
2022-11-23T14:07:44.495Z,6.00
2022-11-23T14:10:24.907Z,6.90
2022-11-23T14:13:20.936Z,7.50
2022-11-23T14:15:59.128Z,6.90
2022-11-23T14:19:04.282Z,6.10
2022-11-23T14:22:14.440Z,6.90
2022-11-23T14:25:12.656Z,5.00
2022-11-23T14:28:23.833Z,7.80
2022-11-23T14:31:24.405Z,6.50
2022-11-23T14:34:32.849Z,6.50
2022-11-23T14:37:34.865Z,6.50
2022-11-23T14:40:41.143Z,6.50
2022-11-23T14:43:20.036Z,6.50
2022-11-23T14:45:48.110Z,6.50
2022-11-23T14:48:32.023Z,6.50
2022-11-23T14:51:00.867Z,6.40
2022-11-23T14:53:32.352Z,6.50
2022-11-23T14:55:59.958Z,6.30
2022-11-23T14:58:30.670Z,6.30
2022-11-23T15:01:02.510Z,6.20
2022-11-23T15:06:25.851Z,6.10
2022-11-23T15:09:04.517Z,6.00
2022-11-23T15:11:33.837Z,5.90
2022-11-23T15:14:03.705Z,7.60
2022-11-23T15:16:39.744Z,5.80
2022-11-23T15:19:28.745Z,5.80
2022-11-23T15:21:57.133Z,5.80
2022-11-23T15:24:29.508Z,6.30
2022-11-23T15:27:09.505Z,5.70
2022-11-23T15:29:40.057Z,5.70
2022-11-23T15:32:43.235Z,5.80
2022-11-23T15:35:19.597Z,5.80
2022-11-23T15:37:48.669Z,5.80
2022-11-23T15:40:17.973Z,5.80
2022-11-23T15:42:47.566Z,5.80
2022-11-23T15:45:34.321Z,5.90
2022-11-23T15:48:04.054Z,5.90
2022-11-23T15:50:34.351Z,6.80
2022-11-23T15:53:02.663Z,6.00
2022-11-23T15:55:32.508Z,6.00
2022-11-23T15:58:02.105Z,6.00
2022-11-23T16:00:30.691Z,6.00
2022-11-23T16:03:26.742Z,6.10
2022-11-23T16:06:36.750Z,6.10
2022-11-23T16:09:50.003Z,6.10
2022-11-23T16:12:22.579Z,7.00
2022-11-23T16:14:54.197Z,6.30
2022-11-23T16:17:31.512Z,4.80
2022-11-23T16:20:06.742Z,8.40
2022-11-23T16:22:43.143Z,9.70
2022-11-23T16:25:32.579Z,6.10
2022-11-23T16:28:07.332Z,6.00
2022-11-23T16:30:44.806Z,6.10
2022-11-23T16:33:19.757Z,5.50
2022-11-23T16:35:48.254Z,7.30
2022-11-23T16:38:18.265Z,6.10
2022-11-23T16:40:52.003Z,6.40
2022-11-23T16:43:21.753Z,7.30
2022-11-23T16:45:53.842Z,7.40
2022-11-23T16:48:28.774Z,6.30
2022-11-23T16:50:57.727Z,6.80
2022-11-23T16:54:07.729Z,6.90
2022-11-23T16:56:27.548Z,6.00
2022-11-23T16:58:55.474Z,7.20
2022-11-23T17:01:30.889Z,6.00
2022-11-23T17:09:03.166Z,5.90
2022-11-23T17:11:39.313Z,5.80
2022-11-23T17:14:13.705Z,3.70
2022-11-23T17:16:47.532Z,5.90
2022-11-23T17:19:22.281Z,6.60
2022-11-23T17:21:52.823Z,6.00
2022-11-23T17:24:26.822Z,5.60
2022-11-23T17:26:56.750Z,5.80
2022-11-23T17:29:24.638Z,5.80
2022-11-23T17:31:54.575Z,5.80
2022-11-23T17:34:23.057Z,5.50
2022-11-23T17:36:52.139Z,7.50
2022-11-23T17:39:23.512Z,5.90
2022-11-23T17:41:51.003Z,6.90
2022-11-23T17:44:18.366Z,5.90
2022-11-23T17:46:47.428Z,8.10
2022-11-23T17:49:20.360Z,6.60
2022-11-23T17:51:54.267Z,6.10
2022-11-23T17:54:23.963Z,6.00
2022-11-23T17:56:51.734Z,6.00
2022-11-23T17:59:20.288Z,6.00
2022-11-23T18:01:48.192Z,6.00
2022-11-23T18:04:15.512Z,6.60
2022-11-23T18:06:45.305Z,6.00
2022-11-23T18:09:21.387Z,6.40
2022-11-23T18:11:52.395Z,6.00
2022-11-23T18:14:30.874Z,4.50
2022-11-23T18:17:07.330Z,7.50
2022-11-23T18:19:39.502Z,5.00
2022-11-23T18:22:07.933Z,5.30
2022-11-23T18:24:37.358Z,5.50
2022-11-23T18:27:04.517Z,6.30
2022-11-23T18:29:34.060Z,5.30
2022-11-23T18:32:01.897Z,5.30
2022-11-23T18:34:29.202Z,5.20
2022-11-23T18:36:56.375Z,6.30
2022-11-23T18:39:25.798Z,6.70
2022-11-23T18:41:55.190Z,5.70
2022-11-23T18:44:22.397Z,5.10
2022-11-23T18:46:50.151Z,5.50
2022-11-23T18:49:17.498Z,5.40
2022-11-23T18:51:45.086Z,5.10
2022-11-23T18:54:19.766Z,5.30
2022-11-23T18:56:47.244Z,6.50
2022-11-23T18:59:42.148Z,5.80
2022-11-23T19:02:06.855Z,5.20
2022-11-23T19:04:34.373Z,6.60
2022-11-23T19:07:04.697Z,5.30
2022-11-23T19:09:32.147Z,5.20
2022-11-23T19:12:01.292Z,6.00
2022-11-23T19:14:28.777Z,5.80
2022-11-23T19:19:24.011Z,4.60
2022-11-23T19:21:51.371Z,5.30
2022-11-23T19:24:18.616Z,5.60
2022-11-23T19:26:46.071Z,7.00
2022-11-23T19:29:19.685Z,5.20
2022-11-23T19:31:58.217Z,4.50
2022-11-23T19:34:25.599Z,5.10
2022-11-23T19:39:20.762Z,5.10
2022-11-23T19:41:50.556Z,5.10
2022-11-23T19:44:20.388Z,5.60
2022-11-23T19:46:48.016Z,5.80
2022-11-23T19:49:18.681Z,5.60
2022-11-23T19:51:47.480Z,4.40
2022-11-23T19:54:14.809Z,5.00
2022-11-23T19:56:42.326Z,4.60
2022-11-23T19:59:12.582Z,5.90
2022-11-23T20:01:39.997Z,5.00
2022-11-23T20:04:09.651Z,5.00
2022-11-23T20:06:40.444Z,5.40
2022-11-23T20:09:25.365Z,5.00
2022-11-23T20:12:02.054Z,0.20
2022-11-23T20:14:35.744Z,4.80
2022-11-23T20:17:10.891Z,0.50
2022-11-23T20:19:45.108Z,3.50
2022-11-23T20:22:13.207Z,5.30
2022-11-23T20:24:43.469Z,5.10
2022-11-23T20:27:12.138Z,5.10
2022-11-23T20:29:49.140Z,6.00
2022-11-23T20:32:16.601Z,5.80
2022-11-23T20:34:44.494Z,5.20
2022-11-23T20:37:12.845Z,5.30
2022-11-23T20:39:43.271Z,4.60
2022-11-23T20:42:10.490Z,5.00
2022-11-23T20:44:37.778Z,5.40
2022-11-23T20:47:07.753Z,6.30
2022-11-23T20:49:35.253Z,5.30
2022-11-23T20:52:07.215Z,5.20
2022-11-23T20:54:34.765Z,4.90
2022-11-23T20:57:02.587Z,6.20
2022-11-23T20:59:33.140Z,5.70
2022-11-23T21:02:01.124Z,6.40
2022-11-23T21:04:31.250Z,5.20
2022-11-23T21:07:01.760Z,4.90
2022-11-23T21:09:30.684Z,5.30
2022-11-23T21:12:20.296Z,5.40
2022-11-23T21:14:48.042Z,5.90
2022-11-23T21:17:17.932Z,5.30
2022-11-23T21:19:45.844Z,6.30
2022-11-23T21:22:22.618Z,5.40
2022-11-23T21:24:58.566Z,5.20
2022-11-23T21:27:31.759Z,5.40
2022-11-23T21:29:59.494Z,4.90
2022-11-23T21:32:26.910Z,6.10
2022-11-23T21:34:59.285Z,6.80
2022-11-23T21:37:29.130Z,6.90
2022-11-23T21:39:56.376Z,5.50
2022-11-23T21:42:23.691Z,5.40
2022-11-23T21:44:58.583Z,5.50
2022-11-23T21:47:36.703Z,5.30
2022-11-23T21:50:08.859Z,5.40
2022-11-23T21:52:36.183Z,5.30
2022-11-23T21:55:04.548Z,6.20
2022-11-23T21:57:31.635Z,5.30
2022-11-23T22:00:02.261Z,5.20
2022-11-23T22:02:39.444Z,5.20
2022-11-23T22:05:09.762Z,6.00
2022-11-23T22:10:07.515Z,4.90
2022-11-23T22:12:35.377Z,4.90
2022-11-23T22:15:02.685Z,4.50
2022-11-23T22:17:55.963Z,4.80
2022-11-23T22:23:18.146Z,4.20
2022-11-23T22:25:49.593Z,5.00
2022-11-23T22:28:16.784Z,5.30
2022-11-23T22:30:55.197Z,4.70
2022-11-23T22:33:22.254Z,5.90
2022-11-23T22:35:51.669Z,4.70
2022-11-23T22:38:18.759Z,4.60
2022-11-23T22:40:49.466Z,4.80
2022-11-23T22:43:16.698Z,3.60
2022-11-23T22:45:46.915Z,4.80
2022-11-23T22:48:14.110Z,6.30
2022-11-23T22:50:41.164Z,5.00
2022-11-23T22:55:35.848Z,5.10
2022-11-23T22:58:02.893Z,5.10
2022-11-23T23:00:32.074Z,5.20
2022-11-23T23:02:59.162Z,5.20
2022-11-23T23:05:26.691Z,4.40
2022-11-23T23:07:55.531Z,5.30
2022-11-23T23:10:22.655Z,5.30
2022-11-23T23:12:52.158Z,5.40
2022-11-23T23:15:19.175Z,5.30
2022-11-23T23:17:46.275Z,5.30
2022-11-23T23:20:13.934Z,5.30
2022-11-23T23:22:40.958Z,5.60
2022-11-23T23:25:08.597Z,5.20
2022-11-23T23:27:35.626Z,5.30
2022-11-23T23:30:03.183Z,5.20
2022-11-23T23:32:30.249Z,5.10
2022-11-23T23:34:59.909Z,5.10
2022-11-23T23:37:27.206Z,5.10
2022-11-23T23:39:56.369Z,5.00
2022-11-23T23:42:24.947Z,5.00
2022-11-23T23:44:54.160Z,5.00
2022-11-23T23:47:21.787Z,4.90
2022-11-23T23:49:48.811Z,3.20
2022-11-23T23:52:15.707Z,4.90
2022-11-23T23:54:45.822Z,5.90
2022-11-23T23:57:13.682Z,5.10
2022-11-23T23:59:40.983Z,4.40
